createdAt,value
2023-04-23T00:50:42.713Z,50.83
2023-04-23T01:00:46.924Z,51.72
2023-04-23T01:10:51.802Z,52.58
2023-04-23T01:20:54.104Z,53.51
2023-04-23T01:30:59.115Z,53.73
2023-04-23T01:41:07.475Z,55.03
2023-04-23T01:51:12.426Z,56.01
2023-04-23T02:01:16.940Z,57.27
2023-04-23T02:11:19.516Z,58.04
2023-04-23T02:21:25.554Z,60.87
2023-04-23T02:31:27.803Z,62.53
2023-04-23T02:41:30.413Z,64.42
2023-04-23T02:51:34.688Z,66.38
2023-04-23T03:01:39.326Z,65.46
2023-04-23T03:11:45.394Z,65.83
2023-04-23T03:21:51.811Z,69.32
2023-04-23T03:31:56.966Z,70.39
2023-04-23T03:42:05.665Z,71.98
2023-04-23T03:52:09.291Z,71.22
2023-04-23T04:02:18.252Z,71.13
2023-04-23T04:12:24.296Z,68.67
2023-04-23T04:22:26.512Z,67.06
2023-04-23T04:32:30.233Z,65.52
2023-04-23T04:42:32.497Z,62.59
2023-04-23T04:52:37.629Z,61.58
2023-04-23T05:02:40.113Z,60.07
2023-04-23T05:12:44.852Z,59.07
2023-04-23T05:22:47.275Z,57.38
2023-04-23T05:32:49.932Z,56.08
2023-04-23T05:42:52.336Z,54.67
2023-04-23T05:52:54.716Z,53.62
2023-04-23T06:03:01.889Z,51.55
2023-04-23T06:13:06.890Z,49.77
2023-04-23T06:23:15.750Z,48.67
2023-04-23T06:33:25.182Z,47.91
2023-04-23T06:43:30.866Z,46.30
2023-04-23T06:53:53.657Z,46.15
2023-04-23T07:03:56.084Z,44.94
2023-04-23T07:14:02.621Z,43.54
2023-04-23T07:24:07.530Z,42.97
2023-04-23T07:34:10.223Z,41.79
2023-04-23T07:44:14.745Z,40.58
2023-04-23T07:54:25.217Z,40.16
2023-04-23T08:04:32.777Z,39.09
2023-04-23T08:14:35.551Z,36.57
2023-04-23T08:24:43.346Z,36.71
2023-04-23T08:34:45.593Z,35.84
2023-04-23T08:44:47.913Z,36.10
2023-04-23T08:54:54.011Z,33.94
2023-04-23T09:04:56.561Z,32.79
2023-04-23T09:15:11.570Z,32.35
2023-04-23T09:25:20.324Z,31.60
2023-04-23T09:35:28.473Z,32.12
2023-04-23T09:45:31.362Z,31.77
2023-04-23T09:55:43.988Z,33.22
2023-04-23T10:06:00.602Z,33.51
2023-04-23T10:16:20.725Z,33.08
2023-04-23T10:26:26.235Z,32.86
2023-04-23T10:36:29.302Z,31.64
2023-04-23T10:46:32.108Z,32.34
2023-04-23T10:56:34.443Z,32.21
2023-04-23T11:06:48.292Z,33.23
2023-04-23T11:16:50.981Z,32.23
2023-04-23T11:26:58.500Z,31.81
2023-04-23T11:37:01.581Z,30.68
2023-04-23T11:47:06.190Z,30.66
2023-04-23T11:57:11.091Z,30.46
2023-04-23T12:07:26.375Z,30.00
2023-04-23T12:17:34.805Z,29.81
2023-04-23T12:27:42.912Z,29.70
2023-04-23T12:37:50.512Z,29.91
2023-04-23T12:47:57.728Z,29.37
2023-04-23T12:58:07.168Z,28.59
2023-04-23T13:08:11.912Z,29.19
2023-04-23T13:18:14.345Z,29.20
2023-04-23T13:28:17.579Z,28.99
2023-04-23T13:38:19.778Z,29.03
2023-04-23T13:48:22.647Z,29.05
2023-04-23T13:58:29.880Z,29.13
2023-04-23T14:08:32.104Z,29.61
2023-04-23T14:18:34.257Z,29.40
2023-04-23T14:28:45.326Z,29.77
2023-04-23T14:38:52.295Z,29.55
2023-04-23T14:48:54.467Z,29.48
2023-04-23T14:58:59.046Z,29.49
2023-04-23T15:09:04.207Z,30.23
2023-04-23T15:19:10.402Z,30.62
2023-04-23T15:29:19.244Z,30.36
2023-04-23T15:39:21.740Z,30.76
2023-04-23T15:49:23.837Z,30.68
2023-04-23T15:59:25.974Z,30.78
2023-04-23T16:09:30.437Z,30.72
2023-04-23T16:19:35.326Z,30.65
2023-04-23T16:29:38.346Z,30.70
2023-04-23T16:39:43.885Z,30.87
2023-04-23T16:49:46.514Z,30.82
2023-04-23T16:59:48.754Z,30.92
2023-04-23T17:09:51.671Z,31.30
2023-04-23T17:19:55.101Z,31.95
2023-04-23T17:29:57.316Z,32.37
2023-04-23T17:40:00.088Z,32.38
2023-04-23T17:50:06.532Z,32.56
2023-04-23T18:00:10.347Z,32.75
2023-04-23T18:10:18.046Z,33.15
2023-04-23T18:20:25.156Z,33.73
2023-04-23T18:30:29.960Z,33.65
2023-04-23T18:40:32.316Z,33.76
2023-04-23T18:50:44.608Z,33.84
2023-04-23T19:00:51.651Z,33.90
2023-04-23T19:10:53.820Z,33.93
2023-04-23T19:20:58.562Z,34.22
2023-04-23T19:31:03.135Z,34.54
2023-04-23T19:41:11.441Z,34.70
2023-04-23T19:51:14.986Z,34.89
2023-04-23T20:01:18.193Z,35.47
2023-04-23T20:11:29.590Z,35.97
2023-04-23T20:21:35.046Z,36.31
2023-04-23T20:31:38.441Z,36.65
2023-04-23T20:41:40.684Z,36.98
2023-04-23T20:51:43.156Z,37.26
2023-04-23T21:01:45.476Z,37.05
2023-04-23T21:11:52.746Z,37.23
2023-04-23T21:22:01.467Z,37.93
2023-04-23T21:32:06.163Z,38.33
2023-04-23T21:42:11.178Z,39.37
2023-04-23T21:52:17.642Z,39.94
2023-04-23T22:02:23.187Z,40.95
2023-04-23T22:12:28.740Z,41.81
2023-04-23T22:22:31.328Z,42.20
2023-04-23T22:32:41.165Z,42.36
2023-04-23T22:42:47.562Z,43.00
2023-04-23T22:52:55.466Z,43.53
2023-04-23T23:02:58.105Z,44.12
2023-04-23T23:13:01.563Z,44.95
2023-04-23T23:23:04.205Z,45.73
2023-04-23T23:33:09.924Z,46.49
2023-04-23T23:43:12.537Z,47.39
2023-04-23T23:53:14.720Z,48.12
